KSEA

Seattle-Tacoma International Airport

Seattle, Washington, USA
METAR KSEA 190853Z 34004KT 10SM FEW200 11/07 A3007 RMK AO2 SLP188 T01110072 57001
Observed Flight Rules
Sep-19 @ 08:53 UTC (11 minutes ago) Visual Flight Rules
Wind Visibility Clouds
340° at 4 knots 10 miles
  • Few at 20,000' AGL
Temperatures Readings
Current 11°C / 52°F
Dewpoint 7°C / 45°F
Humidity 77%
Altimeter 30.07" Hg
Pressure 1018.8 hPa
Elevation 136
METAR KSEA 190853Z 34004KT 10SM FEW200 11/07 A3007 RMK AO2 SLP188 T01110072 57001
Observed Flight Rules
Sep-19 @ 08:53 UTC
(11 minutes ago)
VFR
Wind Visibility
340° at 4 knots 10 miles
Clouds
  • Few at 20,000' AGL
Temperature Dewpoint
11°C / 52°F 7°C / 45°F
Humidity Altimeter Pressure
77% 30.07" Hg 1018.8 hPa